Terminal Aerodrome Forecast
Issued by NWS Chicago, IL

Home | Current Version | Previous Version | Text Only | Print | Product List | Glossary On
Versions: 1 2 3 4 5 6 7 8 9 10 11 12 13 14 15 16 17 18 19 20 21 22
000
FTUS43 KLOT 302103 AAA
TAFRFD
TAF AMD
KRFD 302103Z 3021/0118 05014G22KT P6SM VCSH BKN014 BKN020
     FM010100 04012KT P6SM VCSH BKN012
      TEMPO 0101/0104 5SM -SHRA SCT008 OVC010
     FM010400 05011KT 4SM -SHRADZ BR OVC008
     FM010900 04008KT 3SM -DZ BR OVC005
     FM011600 04010KT 5SM -SHRA BR OVC008=

USA.gov is the U.S. government's official web portal to all federal, state and local government web resources and services.